createdAt,value
2022-11-28T00:00:48.342Z,599.3
2022-11-28T00:01:51.014Z,599.3
2022-11-28T00:02:54.309Z,599.3
2022-11-28T00:03:57.547Z,599.6
2022-11-28T00:05:00.866Z,599.7
2022-11-28T00:06:03.567Z,599.6
2022-11-28T00:07:06.168Z,599.5
2022-11-28T00:08:08.382Z,599.7
2022-11-28T00:09:10.469Z,599.8
2022-11-28T00:10:12.971Z,600.1
2022-11-28T00:11:14.623Z,599.8
2022-11-28T00:12:16.845Z,600
2022-11-28T00:13:19.353Z,599.8
2022-11-28T00:14:21.590Z,600.1
2022-11-28T00:15:23.519Z,600.2
2022-11-28T00:16:26.154Z,600.3
2022-11-28T00:17:28.454Z,600.5
2022-11-28T00:18:30.904Z,600
2022-11-28T00:19:33.239Z,600.5
2022-11-28T00:20:35.715Z,600.2
2022-11-28T00:21:37.661Z,600.3
2022-11-28T00:22:39.976Z,600.2
2022-11-28T00:23:42.495Z,599.9
2022-11-28T00:24:45.946Z,599.5
2022-11-28T00:25:47.885Z,599.2
2022-11-28T00:26:50.096Z,599.2
2022-11-28T00:27:52.569Z,598.8
2022-11-28T00:28:54.773Z,599
2022-11-28T00:29:57.256Z,599
2022-11-28T00:30:59.458Z,599.3
2022-11-28T00:32:01.967Z,599.6
2022-11-28T00:33:04.527Z,600.1
2022-11-28T00:35:13.809Z,600.7
2022-11-28T00:36:16.338Z,600.5
2022-11-28T00:37:18.814Z,600.9
2022-11-28T00:38:21.399Z,601
2022-11-28T00:39:23.880Z,600.8
2022-11-28T00:40:26.190Z,600.7
2022-11-28T00:41:28.662Z,600.9
2022-11-28T00:42:30.601Z,601.4
2022-11-28T00:43:32.932Z,601.2
2022-11-28T00:44:35.146Z,601.3
2022-11-28T00:45:37.766Z,602
2022-11-28T00:46:40.269Z,602.2
2022-11-28T00:47:42.748Z,602.7
2022-11-28T00:48:44.668Z,602.7
2022-11-28T00:49:46.991Z,602.9
2022-11-28T00:50:49.707Z,603
2022-11-28T00:51:52.186Z,603.2
2022-11-28T00:52:54.094Z,603.7
2022-11-28T00:53:56.708Z,603.5
2022-11-28T00:54:58.935Z,603.8
2022-11-28T00:56:01.553Z,604
2022-11-28T00:57:03.504Z,603.9
2022-11-28T00:58:05.708Z,604.1
2022-11-28T00:59:07.909Z,604.3
2022-11-28T01:00:10.101Z,604.4
2022-11-28T01:01:12.488Z,604.4
2022-11-28T01:02:15.212Z,604.3
2022-11-28T01:03:17.763Z,604.5
2022-11-28T01:04:20.232Z,604.5
2022-11-28T01:05:22.819Z,604.8
2022-11-28T01:06:25.528Z,604.3
2022-11-28T01:07:28.584Z,604.4
2022-11-28T01:08:31.124Z,604.2
2022-11-28T01:09:33.450Z,604.4
2022-11-28T01:10:35.672Z,604.3
2022-11-28T01:11:38.263Z,604
2022-11-28T01:12:40.263Z,604
2022-11-28T01:13:42.468Z,603.9
2022-11-28T01:14:45.275Z,603.7
2022-11-28T01:15:47.061Z,603.7
2022-11-28T01:16:50.192Z,603.6
2022-11-28T01:17:52.709Z,603.4
2022-11-28T01:18:55.188Z,603.2
2022-11-28T01:19:56.816Z,603.3
2022-11-28T01:20:59.410Z,603.3
2022-11-28T01:22:01.589Z,603.4
2022-11-28T01:23:03.788Z,604
2022-11-28T01:24:05.969Z,603.8
2022-11-28T01:25:08.565Z,603.5
2022-11-28T01:26:10.477Z,604.3
2022-11-28T01:27:12.822Z,603.9
2022-11-28T01:28:15.041Z,604.2
2022-11-28T01:29:17.238Z,604.8
2022-11-28T01:30:19.730Z,605.4
2022-11-28T01:31:22.655Z,604.9
2022-11-28T01:32:25.173Z,605.4
2022-11-28T01:33:27.381Z,605.5
2022-11-28T01:34:29.871Z,605.4
2022-11-28T01:35:32.071Z,605.6
2022-11-28T01:36:34.665Z,605.2
2022-11-28T01:37:37.366Z,605.2
2022-11-28T01:38:39.555Z,605.2
2022-11-28T01:39:41.459Z,606
2022-11-28T01:40:44.053Z,605.9
2022-11-28T01:41:46.542Z,606.3
2022-11-28T01:42:49.178Z,606.9
2022-11-28T01:43:51.369Z,607.1
2022-11-28T01:44:53.556Z,607.7
2022-11-28T01:45:55.753Z,607.4
2022-11-28T01:46:58.409Z,607.9
2022-11-28T01:48:00.682Z,608
2022-11-28T01:49:02.886Z,607.8
2022-11-28T01:50:05.392Z,607.2
2022-11-28T01:51:07.743Z,607.2
2022-11-28T01:52:10.347Z,606.3
2022-11-28T01:53:12.816Z,605.3
2022-11-28T01:54:15.010Z,604.2
2022-11-28T01:55:17.205Z,603
2022-11-28T01:56:19.514Z,602.7
2022-11-28T01:57:22.008Z,603.3
2022-11-28T01:58:24.596Z,603.6
2022-11-28T01:59:26.804Z,603.8
2022-11-28T02:00:29.278Z,604
2022-11-28T02:01:32.143Z,603.9
2022-11-28T02:02:35.047Z,603.8
2022-11-28T02:03:37.339Z,604
2022-11-28T02:04:39.299Z,604.7
2022-11-28T02:05:41.811Z,605.3
2022-11-28T02:06:44.023Z,605.2
2022-11-28T02:07:47.030Z,604.8
2022-11-28T02:08:49.810Z,604.4
2022-11-28T02:09:52.279Z,604.7
2022-11-28T02:10:54.466Z,604.3
2022-11-28T02:11:57.085Z,604.8
2022-11-28T02:12:59.347Z,604.5
2022-11-28T02:14:01.672Z,604.3
2022-11-28T02:15:04.145Z,604
2022-11-28T02:16:06.635Z,604.3
2022-11-28T02:17:08.851Z,605.3
2022-11-28T02:18:11.330Z,605.7
2022-11-28T02:19:13.511Z,605.7
2022-11-28T02:20:15.768Z,606.1
2022-11-28T02:21:17.965Z,606.3
2022-11-28T02:22:20.203Z,606.5
2022-11-28T02:23:22.517Z,606.4
2022-11-28T02:24:24.959Z,606.3
2022-11-28T02:25:27.444Z,606.2
2022-11-28T02:26:29.913Z,606.5
2022-11-28T02:27:32.506Z,606.9
2022-11-28T02:28:34.982Z,607
2022-11-28T02:29:37.104Z,606.8
2022-11-28T02:30:39.588Z,606.2
2022-11-28T02:31:42.237Z,606.7
2022-11-28T02:32:44.207Z,607
2022-11-28T02:33:46.696Z,606.8
2022-11-28T02:34:51.066Z,607.2
2022-11-28T02:35:53.380Z,607.5
2022-11-28T02:36:55.585Z,607.8
2022-11-28T02:37:57.811Z,607.6
2022-11-28T02:39:00.409Z,608.2
2022-11-28T02:40:02.871Z,608.6
2022-11-28T02:41:05.348Z,608.5
2022-11-28T02:42:07.830Z,608.5
2022-11-28T02:43:10.416Z,608.1
2022-11-28T02:44:12.622Z,608.8
2022-11-28T02:45:15.244Z,608.7
2022-11-28T02:46:17.918Z,608.9
2022-11-28T02:47:20.150Z,609.1
2022-11-28T02:48:22.624Z,609
2022-11-28T02:49:25.114Z,609.6
2022-11-28T02:50:27.312Z,609.5
2022-11-28T02:51:29.505Z,609.3
2022-11-28T02:52:31.985Z,609.4
2022-11-28T02:53:34.471Z,610.1
2022-11-28T02:54:36.804Z,610.3
2022-11-28T02:55:39.509Z,610.7
2022-11-28T02:56:41.982Z,610.4
2022-11-28T02:57:44.188Z,610.1
2022-11-28T02:58:46.790Z,609.5
2022-11-28T02:59:48.692Z,610.2
2022-11-28T03:00:51.712Z,610.3
2022-11-28T03:01:54.566Z,610.2
2022-11-28T03:02:57.079Z,609.8
2022-11-28T03:03:58.994Z,610.1
2022-11-28T03:05:01.492Z,609.8
2022-11-28T03:06:03.973Z,609.5
2022-11-28T03:07:06.449Z,609
2022-11-28T03:08:08.935Z,608.9
2022-11-28T03:09:11.436Z,608.8
2022-11-28T03:10:14.013Z,609.2
2022-11-28T03:11:16.718Z,610.6
2022-11-28T03:12:19.234Z,610.5
2022-11-28T03:13:21.168Z,610.3
2022-11-28T03:14:23.766Z,610.2
2022-11-28T03:15:25.948Z,610.3
2022-11-28T03:16:28.685Z,610.5
2022-11-28T03:17:30.643Z,610.5
2022-11-28T03:18:33.126Z,610.6
2022-11-28T03:19:35.303Z,611.1
2022-11-28T03:20:37.258Z,611.4
2022-11-28T03:21:39.748Z,611.3
2022-11-28T03:22:41.682Z,612
2022-11-28T03:23:43.603Z,611.9
2022-11-28T03:24:46.514Z,611.7
2022-11-28T03:25:49.103Z,612.2
2022-11-28T03:26:51.847Z,612.3
2022-11-28T03:27:54.316Z,613.1
2022-11-28T03:28:56.532Z,613.8
2022-11-28T03:29:59.120Z,613.6
2022-11-28T03:31:01.902Z,614
2022-11-28T03:32:04.290Z,613.7
2022-11-28T03:33:06.512Z,613.3
2022-11-28T03:34:08.712Z,613.2
2022-11-28T03:35:10.943Z,613.3
2022-11-28T03:36:13.423Z,613.7
2022-11-28T03:37:15.628Z,613.5
2022-11-28T03:38:18.125Z,613.3
2022-11-28T03:39:20.601Z,613.3
2022-11-28T03:40:23.087Z,613.9
2022-11-28T03:41:25.410Z,614.4
2022-11-28T03:42:28.116Z,614.5
2022-11-28T03:43:30.601Z,614.6
2022-11-28T03:44:32.809Z,614
2022-11-28T03:45:35.412Z,613.6
2022-11-28T03:46:38.010Z,613.6
2022-11-28T03:47:40.654Z,614
2022-11-28T03:48:43.133Z,614.4
2022-11-28T03:49:45.351Z,614.4
2022-11-28T03:50:47.831Z,614.2
2022-11-28T03:51:50.033Z,614.3
2022-11-28T03:52:52.238Z,614.5
2022-11-28T03:53:54.709Z,614.2
2022-11-28T03:54:57.188Z,614
2022-11-28T03:56:00.048Z,614
2022-11-28T03:57:02.672Z,614.2
2022-11-28T03:58:05.384Z,615.1
2022-11-28T03:59:07.867Z,615.9
2022-11-28T04:00:10.347Z,616.5
2022-11-28T04:01:13.412Z,616.4
2022-11-28T04:02:15.923Z,615.8
2022-11-28T04:03:19.078Z,615.4
2022-11-28T04:04:21.565Z,615.1
2022-11-28T04:05:24.049Z,615.7
2022-11-28T04:06:25.999Z,615.9
2022-11-28T04:07:29.020Z,616.3
2022-11-28T04:08:31.651Z,616.2
2022-11-28T04:09:34.205Z,615.9
2022-11-28T04:10:36.671Z,615.6
2022-11-28T04:11:39.247Z,615.7
2022-11-28T04:12:41.863Z,615.9
2022-11-28T04:13:44.567Z,615.8
2022-11-28T04:14:47.226Z,616.3
2022-11-28T04:15:49.699Z,616.4
2022-11-28T04:17:57.176Z,616.2
2022-11-28T04:18:59.777Z,616.1
2022-11-28T04:20:02.256Z,616.2
2022-11-28T04:21:04.459Z,617.1
2022-11-28T04:22:06.945Z,617.3
2022-11-28T04:23:09.148Z,617.6
2022-11-28T04:24:11.621Z,617.9
2022-11-28T04:25:14.099Z,617.3
2022-11-28T04:26:16.313Z,617.3
2022-11-28T04:27:18.246Z,617.2
2022-11-28T04:28:20.833Z,617.7
2022-11-28T04:29:23.272Z,618.2
2022-11-28T04:30:25.746Z,618.1
2022-11-28T04:31:28.734Z,617.4
2022-11-28T04:32:31.109Z,616.7
2022-11-28T04:33:33.582Z,616.5
2022-11-28T04:34:35.897Z,617.1
2022-11-28T04:35:37.834Z,617.3
2022-11-28T04:36:40.317Z,617.3
2022-11-28T04:37:42.629Z,617.5
2022-11-28T04:38:45.384Z,617.4
2022-11-28T04:39:47.936Z,617.4
2022-11-28T04:40:50.181Z,617
2022-11-28T04:41:52.391Z,617.4
2022-11-28T04:42:55.319Z,617.6
2022-11-28T04:43:57.936Z,617.7
2022-11-28T04:45:00.667Z,618.1
2022-11-28T04:46:03.234Z,618.4
2022-11-28T04:47:05.752Z,618.3
2022-11-28T04:48:08.382Z,618.5
2022-11-28T04:49:10.360Z,617.9
2022-11-28T04:50:12.957Z,617.6
2022-11-28T04:51:15.165Z,617.3
2022-11-28T04:52:17.397Z,617.8
2022-11-28T04:53:19.598Z,618
2022-11-28T04:54:21.795Z,617.9
2022-11-28T04:55:24.273Z,618.6
2022-11-28T04:56:26.759Z,619.1
2022-11-28T04:57:29.227Z,619.5
2022-11-28T04:58:31.407Z,619.4
2022-11-28T04:59:34.016Z,618.6
2022-11-28T05:00:36.495Z,617.9
2022-11-28T05:01:38.927Z,617.2
2022-11-28T05:02:41.277Z,616.1
2022-11-28T05:03:44.991Z,615.3
2022-11-28T05:04:47.516Z,615.1
2022-11-28T05:05:50.138Z,613.9
2022-11-28T05:06:52.317Z,614.3
2022-11-28T05:07:55.243Z,614.3
2022-11-28T05:08:57.759Z,613.3
2022-11-28T05:10:00.249Z,613.2
2022-11-28T05:11:02.470Z,614.1
2022-11-28T05:12:04.955Z,613.2
2022-11-28T05:13:07.453Z,612.5
2022-11-28T05:14:09.926Z,612.4
2022-11-28T05:15:12.534Z,613.2
2022-11-28T05:16:15.234Z,614
2022-11-28T05:17:17.220Z,613.9
2022-11-28T05:18:19.688Z,612.4
2022-11-28T05:19:22.298Z,611.1
2022-11-28T05:20:24.791Z,611.3
2022-11-28T05:21:27.110Z,612.4
2022-11-28T05:22:29.309Z,612.7
2022-11-28T05:23:31.786Z,612.7
2022-11-28T05:24:34.540Z,612.3
2022-11-28T05:25:37.018Z,611.9
2022-11-28T05:26:39.487Z,612.1
2022-11-28T05:27:41.957Z,611.9
2022-11-28T05:28:44.440Z,612.5
2022-11-28T05:30:51.742Z,612.9
2022-11-28T05:31:54.985Z,612.5
2022-11-28T05:32:57.535Z,611.5
2022-11-28T05:34:00.036Z,611.6
2022-11-28T05:35:02.355Z,612.8
2022-11-28T05:37:10.413Z,613.1
2022-11-28T05:39:17.599Z,611.4
2022-11-28T05:40:19.797Z,612.7
2022-11-28T05:41:21.725Z,613.3
2022-11-28T05:42:23.729Z,612.9
2022-11-28T05:43:25.684Z,612
2022-11-28T05:44:29.253Z,612.1
2022-11-28T05:45:32.048Z,613.4
2022-11-28T05:46:34.682Z,614.9
2022-11-28T05:47:36.845Z,614.9
2022-11-28T05:48:39.033Z,614
2022-11-28T05:49:42.456Z,613.9
2022-11-28T05:50:44.959Z,615.2
2022-11-28T05:51:47.428Z,616.6
2022-11-28T05:52:50.028Z,617.1
2022-11-28T05:53:52.212Z,615.6
2022-11-28T05:54:54.705Z,614.8
2022-11-28T05:55:56.623Z,614.3
2022-11-28T05:56:58.567Z,615.2
2022-11-28T05:58:01.064Z,616.5
2022-11-28T05:59:02.986Z,618
2022-11-28T06:00:05.479Z,618.2
2022-11-28T06:01:07.955Z,617.7
2022-11-28T06:02:10.770Z,615.9
2022-11-28T06:03:13.505Z,616
2022-11-28T06:04:16.279Z,616.7
2022-11-28T06:06:23.822Z,618.8
2022-11-28T06:07:26.456Z,618.3
2022-11-28T06:08:29.119Z,618.7
2022-11-28T06:09:31.595Z,618.5
2022-11-28T06:10:33.803Z,618
2022-11-28T06:11:36.274Z,617.1
2022-11-28T06:12:38.497Z,617.5
2022-11-28T06:13:40.971Z,617.9
2022-11-28T06:14:43.445Z,617.4
2022-11-28T06:15:45.649Z,617.5
2022-11-28T06:16:48.240Z,618.1
2022-11-28T06:17:50.867Z,617.6
2022-11-28T06:18:54.091Z,617.8
2022-11-28T06:19:56.746Z,618.4
2022-11-28T06:20:59.227Z,617.9
2022-11-28T06:22:01.832Z,618.2
2022-11-28T06:23:04.340Z,617.3
2022-11-28T06:24:06.940Z,617.1
2022-11-28T06:25:09.450Z,617.8
2022-11-28T06:26:11.948Z,618.5
2022-11-28T06:27:13.909Z,618.7
2022-11-28T06:28:15.851Z,618.2
2022-11-28T06:29:17.776Z,618.2
2022-11-28T06:30:20.270Z,618.2
2022-11-28T06:31:22.633Z,618.7
2022-11-28T06:32:24.612Z,618.8
2022-11-28T06:33:27.240Z,618.8
2022-11-28T06:34:29.691Z,618.6
2022-11-28T06:35:31.891Z,618.7
2022-11-28T06:36:34.126Z,619.2
2022-11-28T06:37:36.722Z,619.3
2022-11-28T06:38:39.223Z,619.1
2022-11-28T06:39:43.151Z,618.6
2022-11-28T06:40:45.801Z,618.6
2022-11-28T06:41:48.001Z,618.5
2022-11-28T06:42:50.221Z,618.7
2022-11-28T06:43:52.714Z,619.1
2022-11-28T06:44:54.910Z,619
2022-11-28T06:45:57.763Z,619.5
2022-11-28T06:47:00.253Z,619.9
2022-11-28T06:48:02.459Z,619.6
2022-11-28T06:49:04.772Z,619.8
2022-11-28T06:50:07.566Z,619.8
2022-11-28T06:51:09.524Z,619.6
2022-11-28T06:52:12.016Z,618.6
2022-11-28T06:53:14.624Z,617.9
2022-11-28T06:54:16.928Z,616.8
2022-11-28T06:55:19.274Z,616.9
2022-11-28T06:56:21.482Z,616.3
2022-11-28T06:57:23.681Z,617.5
2022-11-28T06:58:26.164Z,618.4
2022-11-28T06:59:28.656Z,618.8
2022-11-28T07:00:31.278Z,618.7
2022-11-28T07:01:34.228Z,618.6
2022-11-28T07:02:37.208Z,619
2022-11-28T07:03:39.759Z,619.1
2022-11-28T07:04:42.357Z,619
2022-11-28T07:05:45.065Z,619.3
2022-11-28T07:06:47.568Z,619.2
2022-11-28T07:08:54.875Z,619.5
2022-11-28T07:09:57.361Z,618.9
2022-11-28T07:10:59.700Z,619
2022-11-28T07:12:01.923Z,618.7
2022-11-28T07:14:09.390Z,619.2
2022-11-28T07:15:11.887Z,619.4
2022-11-28T07:16:14.455Z,619.1
2022-11-28T07:17:16.783Z,618.4
2022-11-28T07:18:18.712Z,617.7
2022-11-28T07:19:21.182Z,617.9
2022-11-28T07:20:23.786Z,616.7
2022-11-28T07:21:26.545Z,616.5
2022-11-28T07:22:29.023Z,616.4
2022-11-28T07:23:31.234Z,616.1
2022-11-28T07:24:33.584Z,616.7
2022-11-28T07:25:35.802Z,616.3
2022-11-28T07:26:38.659Z,617.5
2022-11-28T07:27:40.866Z,618.1
2022-11-28T07:28:43.348Z,618.3
2022-11-28T07:29:46.484Z,617.5
2022-11-28T07:30:48.429Z,617
2022-11-28T07:31:51.291Z,616.1
2022-11-28T07:32:53.528Z,616.6
2022-11-28T07:33:56.038Z,617.8
2022-11-28T07:34:58.532Z,618.5
2022-11-28T07:36:01.128Z,618.3
2022-11-28T07:37:03.488Z,618.6
2022-11-28T07:38:05.954Z,618.8
2022-11-28T07:39:08.473Z,619.6
2022-11-28T07:40:10.819Z,619.7
2022-11-28T07:41:13.075Z,619.9
2022-11-28T07:42:15.666Z,619.4
2022-11-28T07:43:18.692Z,619
2022-11-28T07:44:21.199Z,619
2022-11-28T07:46:30.788Z,619.4
2022-11-28T07:47:33.037Z,619.4
2022-11-28T07:48:35.553Z,619.7
2022-11-28T07:49:37.785Z,619.9
2022-11-28T07:50:40.303Z,620.3
2022-11-28T07:51:42.248Z,620.2
2022-11-28T07:52:44.230Z,620.2
2022-11-28T07:53:46.711Z,620.5
2022-11-28T07:54:48.941Z,620.2
2022-11-28T07:55:51.200Z,620.1
2022-11-28T07:57:58.706Z,620.5
2022-11-28T08:00:06.194Z,619.9
2022-11-28T08:01:08.407Z,619.9
2022-11-28T08:02:11.269Z,620
2022-11-28T08:03:13.534Z,620.1
2022-11-28T08:04:16.430Z,619.7
2022-11-28T08:05:18.177Z,620.1
2022-11-28T08:06:20.679Z,619.7
2022-11-28T08:07:23.302Z,619.1
2022-11-28T08:08:25.906Z,619.8
2022-11-28T08:09:28.414Z,619.3
2022-11-28T08:10:30.894Z,618.6
2022-11-28T08:11:33.407Z,618.9
2022-11-28T08:12:35.343Z,619
2022-11-28T08:13:37.555Z,617.8
2022-11-28T08:14:40.359Z,618.4
2022-11-28T08:15:42.887Z,618.7
2022-11-28T08:16:45.252Z,618.7
2022-11-28T08:17:47.981Z,618.4
2022-11-28T08:18:50.479Z,618.9
2022-11-28T08:19:52.687Z,618.9
2022-11-28T08:20:54.617Z,618.8
2022-11-28T08:21:57.094Z,619.5
2022-11-28T08:22:59.327Z,619.8
2022-11-28T08:24:01.343Z,619.3
2022-11-28T08:25:03.557Z,620
2022-11-28T08:26:06.043Z,619.8
2022-11-28T08:27:08.541Z,620.1
2022-11-28T08:28:10.461Z,620.7
2022-11-28T08:29:12.999Z,620.8
2022-11-28T08:30:15.192Z,620.6
2022-11-28T08:31:17.586Z,621.3
2022-11-28T08:32:20.203Z,620.9
2022-11-28T08:33:22.691Z,621.1
2022-11-28T08:34:25.184Z,621
2022-11-28T08:35:27.975Z,619.7
2022-11-28T08:36:31.588Z,620.1
2022-11-28T08:37:34.086Z,620.6
2022-11-28T08:38:36.584Z,619.4
2022-11-28T08:39:39.120Z,620.1
2022-11-28T08:40:41.612Z,621
2022-11-28T08:41:44.102Z,620.9
2022-11-28T08:42:46.046Z,620.5
2022-11-28T08:43:48.003Z,620.4
2022-11-28T08:44:50.281Z,620.5
2022-11-28T08:45:52.821Z,620.7
2022-11-28T08:46:55.107Z,620.7
2022-11-28T08:47:57.324Z,620.7
2022-11-28T08:48:59.528Z,620.3
2022-11-28T08:50:02.021Z,619.9
2022-11-28T08:51:04.229Z,619.8
2022-11-28T08:52:06.770Z,620.2
2022-11-28T08:53:09.780Z,619.9
2022-11-28T08:54:12.039Z,620
2022-11-28T08:55:14.649Z,620.1
2022-11-28T08:56:16.645Z,619.6
2022-11-28T08:57:18.893Z,619.2
2022-11-28T08:58:21.424Z,618.6
2022-11-28T08:59:23.716Z,619.2
2022-11-28T09:00:25.946Z,619
2022-11-28T09:01:28.943Z,619.4
2022-11-28T09:02:31.467Z,619.4
2022-11-28T09:03:34.240Z,619.6
2022-11-28T09:04:36.469Z,619.7
2022-11-28T09:05:38.962Z,619.3
2022-11-28T09:06:41.471Z,619.5
2022-11-28T09:07:44.470Z,619.6
2022-11-28T09:08:46.998Z,619.9
2022-11-28T09:09:50.869Z,619.4
2022-11-28T09:10:53.130Z,619.2
2022-11-28T09:11:55.335Z,619.3
2022-11-28T09:12:57.289Z,618.9
2022-11-28T09:13:59.247Z,619.1
2022-11-28T09:15:01.179Z,619.5
2022-11-28T09:16:03.400Z,619.3
2022-11-28T09:17:05.170Z,619.3
2022-11-28T09:18:07.484Z,619
2022-11-28T09:19:09.901Z,619
2022-11-28T09:20:12.397Z,618.9
2022-11-28T09:21:14.899Z,618.9
2022-11-28T09:22:17.401Z,618.8
2022-11-28T09:23:19.670Z,618.8
2022-11-28T09:24:21.877Z,618.4
2022-11-28T09:25:23.898Z,618.4
2022-11-28T09:26:26.412Z,618.6
2022-11-28T09:27:28.894Z,618.7
2022-11-28T09:28:31.109Z,618.7
2022-11-28T09:29:33.616Z,618.2
2022-11-28T09:30:36.221Z,618.7
2022-11-28T09:32:44.953Z,618.5
2022-11-28T09:33:47.165Z,618.3
2022-11-28T09:34:49.648Z,618.2
2022-11-28T09:35:51.594Z,618.1
2022-11-28T09:36:54.098Z,618.6
2022-11-28T09:37:56.578Z,618.3
2022-11-28T09:38:58.508Z,618
2022-11-28T09:41:06.020Z,618.2
2022-11-28T09:42:08.578Z,618.2
2022-11-28T09:43:11.063Z,618.3
2022-11-28T09:44:13.543Z,618.1
2022-11-28T09:45:15.770Z,617.8
2022-11-28T09:46:18.593Z,618.3
2022-11-28T09:47:21.120Z,618.7
2022-11-28T09:48:23.607Z,619.2
2022-11-28T09:49:25.546Z,618.6
2022-11-28T09:50:27.559Z,618.7
2022-11-28T09:51:30.046Z,618.7
2022-11-28T09:52:33.052Z,618.4
2022-11-28T09:53:35.534Z,619.4
2022-11-28T09:54:38.044Z,618.6
2022-11-28T09:55:39.967Z,618.5
2022-11-28T09:56:42.223Z,618.3
2022-11-28T09:57:44.209Z,618.5
2022-11-28T09:58:46.690Z,618.3
2022-11-28T09:59:48.355Z,618.2
2022-11-28T10:01:55.007Z,619
2022-11-28T10:02:57.304Z,618.6
2022-11-28T10:04:00.438Z,618.8
2022-11-28T10:05:03.412Z,619.1
2022-11-28T10:06:05.696Z,619.5
2022-11-28T10:07:07.611Z,619.8
2022-11-28T10:08:10.140Z,619.8
2022-11-28T10:09:12.645Z,619.7
2022-11-28T10:10:14.583Z,619.3
2022-11-28T10:11:16.805Z,619.6
2022-11-28T10:12:19.044Z,619.5
2022-11-28T10:13:21.582Z,619.2
2022-11-28T10:14:24.054Z,619.4
2022-11-28T10:15:26.563Z,619.1
2022-11-28T10:16:29.135Z,619.5
2022-11-28T10:17:31.082Z,619.7
2022-11-28T10:18:33.590Z,619.7
2022-11-28T10:20:40.219Z,619.6
2022-11-28T10:21:42.454Z,619.4
2022-11-28T10:22:44.945Z,619.4
2022-11-28T10:23:47.145Z,619.6
2022-11-28T10:24:49.633Z,619.5
2022-11-28T10:25:51.834Z,619.2
2022-11-28T10:26:54.046Z,619.7
2022-11-28T10:27:55.988Z,619.1
2022-11-28T10:28:58.678Z,619.6
2022-11-28T10:30:00.603Z,619.4
2022-11-28T10:31:03.232Z,619.7
2022-11-28T10:32:05.791Z,619.4
2022-11-28T10:33:08.028Z,619.9
2022-11-28T10:34:10.302Z,619.7
2022-11-28T10:35:12.785Z,619.8
2022-11-28T10:36:15.017Z,619.5
2022-11-28T10:37:17.509Z,619.6
2022-11-28T10:38:19.718Z,619.9
2022-11-28T10:39:22.209Z,620.4
2022-11-28T10:40:24.142Z,620.4
2022-11-28T10:41:26.396Z,620.7
2022-11-28T10:42:28.673Z,620.7
2022-11-28T10:43:31.077Z,620.4
2022-11-28T10:44:33.613Z,620.8
2022-11-28T10:45:35.840Z,620.8
2022-11-28T10:46:38.746Z,620.7
2022-11-28T10:47:41.310Z,620.6
2022-11-28T10:48:43.812Z,620.5
2022-11-28T10:49:47.080Z,620.5
2022-11-28T10:50:49.568Z,620.8
2022-11-28T10:51:52.096Z,621.1
2022-11-28T10:52:54.030Z,620.9
2022-11-28T10:53:56.525Z,620.8
2022-11-28T10:54:59.012Z,620.7
2022-11-28T10:56:01.499Z,620.5
2022-11-28T10:57:03.455Z,620.8
2022-11-28T10:58:05.663Z,620.9
2022-11-28T10:59:08.221Z,621
2022-11-28T11:00:10.861Z,621.2
2022-11-28T11:01:13.822Z,621.5
2022-11-28T11:02:16.331Z,621.7
2022-11-28T11:03:18.842Z,621.6
2022-11-28T11:04:21.846Z,620.8
2022-11-28T11:05:24.459Z,620.7
2022-11-28T11:07:33.574Z,621.3
2022-11-28T11:08:35.844Z,621.2
2022-11-28T11:09:38.369Z,621.2
2022-11-28T11:10:40.857Z,620.6
2022-11-28T11:11:43.336Z,620.3
2022-11-28T11:12:45.519Z,620
2022-11-28T11:13:47.458Z,620
2022-11-28T11:14:49.720Z,620.4
2022-11-28T11:15:52.362Z,620.6
2022-11-28T11:16:54.581Z,620.2
2022-11-28T11:17:57.071Z,620
2022-11-28T11:18:59.588Z,620
2022-11-28T11:20:01.519Z,620.2
2022-11-28T11:21:03.781Z,620.3
2022-11-28T11:22:05.996Z,620.4
2022-11-28T11:23:07.941Z,620.7
2022-11-28T11:24:10.143Z,620.5
2022-11-28T11:25:12.064Z,621
2022-11-28T11:26:14.592Z,620.6
2022-11-28T11:27:16.231Z,621.3
2022-11-28T11:28:18.148Z,621.1
2022-11-28T11:29:20.646Z,620.9
2022-11-28T11:30:22.970Z,620.7
2022-11-28T11:31:26.290Z,621.2
2022-11-28T11:32:28.508Z,621.2
2022-11-28T11:33:30.575Z,621.5
2022-11-28T11:34:33.191Z,621.1
2022-11-28T11:35:35.376Z,621.6
2022-11-28T11:36:37.614Z,621.4
2022-11-28T11:37:39.838Z,621.3
2022-11-28T11:38:41.784Z,621.5
2022-11-28T11:39:45.439Z,621
2022-11-28T11:40:47.421Z,621.4
2022-11-28T11:41:49.340Z,621.6
2022-11-28T11:42:51.833Z,621.4
2022-11-28T11:43:54.320Z,621.4
2022-11-28T11:44:56.266Z,622
2022-11-28T11:45:58.878Z,621.8
2022-11-28T11:47:01.175Z,622.2
2022-11-28T11:48:03.370Z,622.2
2022-11-28T11:49:05.851Z,621.9
2022-11-28T11:50:08.060Z,621.8
2022-11-28T11:51:10.272Z,622.3
2022-11-28T11:52:12.800Z,622.4
2022-11-28T11:53:15.280Z,622.5
2022-11-28T11:54:17.755Z,622.1
2022-11-28T11:55:19.428Z,622.5
2022-11-28T11:56:21.904Z,622.5
2022-11-28T11:58:28.841Z,622.6
2022-11-28T11:59:30.806Z,622.5
2022-11-28T12:00:33.007Z,622.4
2022-11-28T12:01:35.632Z,622.5
2022-11-28T12:02:39.277Z,622.9
2022-11-28T12:03:42.692Z,623
2022-11-28T12:06:54.906Z,622.5
2022-11-28T12:07:57.611Z,622.9
2022-11-28T12:08:59.837Z,622.9
2022-11-28T12:11:06.734Z,623.3
2022-11-28T12:12:08.932Z,623.1
2022-11-28T12:13:10.881Z,623.3
2022-11-28T12:14:12.810Z,623.2
2022-11-28T12:15:15.301Z,623.1
2022-11-28T12:16:18.287Z,623.2
2022-11-28T12:18:25.942Z,623.2
2022-11-28T12:19:28.418Z,623.3
2022-11-28T12:20:30.917Z,623.5
2022-11-28T12:21:33.322Z,623.2
2022-11-28T12:22:35.805Z,622.9
2022-11-28T12:23:37.743Z,623.3
2022-11-28T12:24:39.941Z,622.9
2022-11-28T12:25:42.168Z,623.1
2022-11-28T12:26:44.388Z,622.7
2022-11-28T12:27:46.742Z,622.8
2022-11-28T12:28:49.268Z,622.9
2022-11-28T12:29:51.749Z,622.6
2022-11-28T12:30:54.554Z,623
2022-11-28T12:31:56.785Z,623.2
2022-11-28T12:32:58.730Z,623.1
2022-11-28T12:34:01.014Z,623
2022-11-28T12:35:02.670Z,623.3
2022-11-28T12:36:05.611Z,623.1
2022-11-28T12:37:08.125Z,623.6
2022-11-28T12:39:14.818Z,623.6
2022-11-28T12:40:16.763Z,623.6
2022-11-28T12:41:18.711Z,623.8
2022-11-28T12:42:21.284Z,623.5
2022-11-28T12:43:23.536Z,623.6
2022-11-28T12:44:25.725Z,623.5
2022-11-28T12:45:28.221Z,623.4
2022-11-28T12:46:31.144Z,623.4
2022-11-28T12:47:33.359Z,623.2
2022-11-28T12:48:35.298Z,623.5
2022-11-28T12:49:37.610Z,623.5
2022-11-28T12:50:40.395Z,623.5
2022-11-28T12:51:42.946Z,623.4
2022-11-28T12:52:45.508Z,623.7
2022-11-28T12:53:47.190Z,623.6
2022-11-28T12:54:49.813Z,623.6
2022-11-28T12:55:51.997Z,623.6
2022-11-28T12:56:54.402Z,623.3
2022-11-28T12:57:56.893Z,623.8
2022-11-28T12:58:59.113Z,623.4
2022-11-28T13:01:06.322Z,623.3
2022-11-28T13:02:24.187Z,623.2
2022-11-28T13:03:26.541Z,623.1
2022-11-28T13:04:29.101Z,623.2
2022-11-28T13:05:31.201Z,623.1
2022-11-28T13:06:33.409Z,623.3
2022-11-28T13:07:35.626Z,623.2
2022-11-28T13:09:46.354Z,623.6
2022-11-28T13:10:48.700Z,623.3
2022-11-28T13:11:50.949Z,623.6
2022-11-28T13:12:52.906Z,623.9
2022-11-28T13:13:55.440Z,623.5
2022-11-28T13:14:57.968Z,623.5
2022-11-28T13:16:00.280Z,623.4
2022-11-28T13:17:02.266Z,623.9
2022-11-28T13:18:03.941Z,624
2022-11-28T13:19:06.435Z,624.1
2022-11-28T13:20:08.941Z,623.9
2022-11-28T13:21:11.545Z,623.7
2022-11-28T13:22:13.205Z,624
2022-11-28T13:23:15.423Z,624.2
2022-11-28T13:24:17.723Z,624.3
2022-11-28T13:25:20.225Z,623.6
2022-11-28T13:26:22.626Z,624
2022-11-28T13:27:24.891Z,623.7
2022-11-28T13:28:27.107Z,623.9
2022-11-28T13:29:29.640Z,623.9
2022-11-28T13:30:31.842Z,623.9
2022-11-28T13:31:34.390Z,624
2022-11-28T13:32:36.936Z,623.7
2022-11-28T13:33:39.163Z,623.5
2022-11-28T13:34:40.831Z,623.6
2022-11-28T13:35:43.346Z,623.9
2022-11-28T13:40:00.961Z,624.1
2022-11-28T13:41:03.530Z,624.3
2022-11-28T13:43:10.847Z,624
2022-11-28T13:44:13.115Z,623.9
2022-11-28T13:45:15.606Z,623.9
2022-11-28T13:46:18.422Z,624.2
2022-11-28T13:47:20.918Z,623.9
2022-11-28T13:49:28.405Z,624.4
2022-11-28T13:50:30.621Z,623.9
2022-11-28T13:51:35.040Z,624.2
2022-11-28T13:52:37.558Z,624.3
2022-11-28T13:53:39.465Z,624.6
2022-11-28T13:54:42.103Z,624.3
2022-11-28T13:55:45.156Z,624.4
2022-11-28T13:56:47.647Z,624.1
2022-11-28T13:57:49.865Z,624.3
2022-11-28T13:58:53.238Z,624
2022-11-28T13:59:55.744Z,624.1
2022-11-28T14:00:57.959Z,624.3